Time;durP1;ratioP1;P1;durP2;ratioP2;P2;SDS_P1;SDS_P2;PMS_P1;PMS_P2;Temp;Humidity;BMP_temperature;BMP_pressure;BME280_temperature;BME280_humidity;BME280_pressure;Samples;Min_cycle;Max_cycle;Signal;HPM_P1;HPM_P2
2022/09/25 00:01:31;;;;;;;8.93;4.80;;;;;;;15.01;51.11;99611.97;7605861;32;39380;-72
2022/09/25 00:05:47;;;;;;;7.80;4.22;;;;;;;15.34;50.09;99609.06;7585107;32;39979;-72
2022/09/25 00:10:03;;;;;;;8.85;4.18;;;;;;;15.13;50.37;99605.97;7581768;33;38592;-72
2022/09/25 00:14:19;;;;;;;13.55;4.72;;;;;;;15.36;49.80;99601.34;7581824;33;36912;-72
2022/09/25 00:23:10;;;;;;;13.15;5.05;;;;;;;15.47;50.69;99595.63;7581641;33;39922;-72
2022/09/25 00:27:26;;;;;;;9.00;4.65;;;;;;;15.14;51.83;99582.87;7581431;33;38630;-72
2022/09/25 00:31:42;;;;;;;10.02;5.85;;;;;;;15.28;50.60;99582.87;7582402;32;37248;-72
2022/09/25 00:36:03;;;;;;;9.30;5.30;;;;;;;14.47;56.34;99588.84;7581352;33;39371;-72
2022/09/25 00:40:20;;;;;;;9.68;5.95;;;;;;;14.41;57.56;99603.75;7592249;32;40045;-72
2022/09/25 00:45:00;;;;;;;12.52;6.28;;;;;;;14.55;56.67;99588.13;7581313;33;37880;-72
2022/09/25 00:49:21;;;;;;;9.90;5.93;;;;;;;14.58;56.25;99579.34;7581502;33;37352;-72
2022/09/25 00:53:39;;;;;;;14.55;6.50;;;;;;;14.63;56.55;99592.94;7592077;32;39446;-72
2022/09/25 00:57:56;;;;;;;10.55;5.50;;;;;;;14.55;56.99;99590.06;7581289;33;40766;-72
2022/09/25 01:02:18;;;;;;;9.90;5.57;;;;;;;14.60;55.56;99592.75;7591922;32;37604;-72
2022/09/25 01:06:35;;;;;;;10.68;6.30;;;;;;;14.52;54.70;99598.91;7607366;32;37812;-73
2022/09/25 01:10:51;;;;;;;8.80;5.15;;;;;;;14.54;55.50;99605.72;7606880;32;39510;-72
2022/09/25 01:15:11;;;;;;;8.88;5.18;;;;;;;14.72;54.65;99603.22;7606917;32;39884;-72
2022/09/25 01:19:48;;;;;;;7.95;4.60;;;;;;;14.84;54.17;99595.31;7617689;32;38732;-72
2022/09/25 01:24:23;;;;;;;10.77;4.47;;;;;;;14.72;53.32;99571.09;7606839;32;37889;-72
2022/09/25 01:29:00;;;;;;;9.73;5.05;;;;;;;14.80;52.11;99566.84;7605329;32;40043;-71
2022/09/25 01:33:26;;;;;;;8.98;4.60;;;;;;;14.81;51.76;99568.47;7606740;32;39892;-72
2022/09/25 01:37:56;;;;;;;8.18;4.62;;;;;;;14.82;51.70;99584.63;7615806;32;38628;-72
2022/09/25 01:42:26;;;;;;;8.82;5.25;;;;;;;14.57;52.42;99580.44;7616949;32;37907;-72
2022/09/25 01:46:49;;;;;;;9.48;4.72;;;;;;;14.74;53.10;99573.56;7615716;32;39298;-72
2022/09/25 01:51:17;;;;;;;8.48;4.90;;;;;;;14.43;54.58;99574.09;7605365;32;39987;-73
2022/09/25 01:55:47;;;;;;;11.73;4.40;;;;;;;14.33;54.47;99580.59;7616589;32;37826;-72
2022/09/25 02:00:12;;;;;;;9.27;5.22;;;;;;;14.57;54.31;99569.47;7608569;32;37425;-72
2022/09/25 02:04:34;;;;;;;7.37;4.68;;;;;;;14.36;54.25;99569.00;7580486;33;39408;-72
2022/09/25 02:08:56;;;;;;;12.25;4.93;;;;;;;14.15;54.38;99563.09;7591202;32;40109;-72
2022/09/25 02:13:16;;;;;;;9.33;5.03;;;;;;;14.15;53.90;99549.38;7580351;33;37960;-72
2022/09/25 02:22:34;;;;;;;7.85;4.45;;;;;;;13.98;54.34;99551.87;7570870;32;39291;-72
2022/09/25 02:26:50;;;;;;;8.73;4.97;;;;;;;14.20;53.64;99554.78;7590919;32;39961;-71
2022/09/25 02:31:10;;;;;;;9.02;4.95;;;;;;;14.23;54.09;99567.88;7604898;32;38945;-72
2022/09/25 02:35:27;;;;;;;12.30;4.60;;;;;;;14.16;54.56;99577.59;7616782;32;37083;-71
2022/09/25 02:39:46;;;;;;;13.95;5.50;;;;;;;14.23;53.89;99576.09;7606003;32;39421;-72
2022/09/25 02:44:47;;;;;;;11.95;4.82;;;;;;;14.46;53.28;99568.03;7605929;32;40018;-72
2022/09/25 02:49:09;;;;;;;7.72;4.62;;;;;;;13.97;54.91;99580.38;7605829;32;37658;-72
2022/09/25 02:53:42;;;;;;;8.65;4.68;;;;;;;13.89;55.07;99566.25;7605928;32;37062;-72
2022/09/25 02:58:01;;;;;;;11.12;5.22;;;;;;;13.86;54.98;99564.09;7599409;32;39324;-72
2022/09/25 03:02:18;;;;;;;10.73;5.07;;;;;;;14.06;54.51;99549.25;7579665;33;39974;-72
2022/09/25 03:06:36;;;;;;;9.75;4.95;;;;;;;13.95;54.91;99553.28;7590511;32;38807;-72
2022/09/25 03:10:52;;;;;;;9.23;4.93;;;;;;;13.85;55.24;99548.00;7595077;32;37803;-72
2022/09/25 03:15:10;;;;;;;7.70;4.55;;;;;;;14.02;54.82;99544.66;7605547;32;39522;-73
2022/09/25 03:19:28;;;;;;;7.72;4.85;;;;;;;13.68;55.92;99537.56;7605151;32;39884;-73
2022/09/25 03:23:44;;;;;;;8.98;4.95;;;;;;;13.67;55.97;99542.22;7605113;32;38632;-72
2022/09/25 03:28:00;;;;;;;8.30;5.03;;;;;;;13.72;55.69;99535.84;7585838;32;38022;-73
2022/09/25 03:32:16;;;;;;;11.40;5.53;;;;;;;13.91;55.36;99538.56;7579302;33;39529;-72
2022/09/25 03:36:33;;;;;;;9.80;5.28;;;;;;;13.07;59.66;99561.16;7577889;33;40766;-72
2022/09/25 03:40:49;;;;;;;9.25;5.25;;;;;;;12.95;62.26;99561.56;7579094;33;37690;-72
2022/09/25 03:45:08;;;;;;;10.55;5.72;;;;;;;13.06;60.79;99560.34;7578931;33;37156;-72
2022/09/25 03:49:24;;;;;;;7.87;5.05;;;;;;;13.24;58.74;99566.13;7578974;33;40086;-72
2022/09/25 03:53:41;;;;;;;12.52;5.35;;;;;;;13.24;58.20;99563.38;7578911;33;39983;-72
2022/09/25 03:57:57;;;;;;;11.73;5.30;;;;;;;13.30;57.61;99560.28;7595323;32;38780;-72
2022/09/25 04:02:13;;;;;;;10.30;5.97;;;;;;;13.47;56.92;99568.03;7604512;32;37964;-71
2022/09/25 04:06:29;;;;;;;13.65;5.68;;;;;;;12.70;60.15;99585.41;7604337;32;39372;-72
2022/09/25 04:10:45;;;;;;;11.27;5.82;;;;;;;13.07;59.54;99581.13;7604284;32;40200;-72
2022/09/25 04:15:01;;;;;;;9.90;5.20;;;;;;;13.34;57.76;99555.88;7604131;32;37866;-72
2022/09/25 04:19:17;;;;;;;8.70;4.95;;;;;;;13.27;57.81;99558.13;7604093;32;37767;-72
2022/09/25 04:23:33;;;;;;;9.68;5.22;;;;;;;13.20;57.89;99559.63;7601082;32;39320;-72
2022/09/25 04:27:49;;;;;;;11.15;5.62;;;;;;;13.20;57.80;99559.63;7578078;33;39731;-72
2022/09/25 04:36:40;;;;;;;9.82;5.90;;;;;;;13.22;57.62;99566.41;7577686;33;37302;-72
2022/09/25 04:40:56;;;;;;;9.02;5.32;;;;;;;12.97;58.52;99573.06;7577741;32;39236;-72
2022/09/25 04:45:13;;;;;;;13.52;5.30;;;;;;;12.94;58.86;99568.16;7577606;33;40069;-72
2022/09/25 04:49:29;;;;;;;8.68;5.12;;;;;;;12.92;58.75;99565.72;7580938;33;37779;-73
2022/09/25 04:53:46;;;;;;;12.13;5.80;;;;;;;12.99;58.63;99567.25;7582191;32;37846;-72
2022/09/25 04:58:02;;;;;;;14.18;5.50;;;;;;;13.21;57.85;99562.06;7581306;33;40048;-73
2022/09/25 05:02:18;;;;;;;8.35;4.93;;;;;;;12.98;58.59;99557.44;7581169;33;41039;-73
2022/09/25 05:06:34;;;;;;;8.20;4.97;;;;;;;13.04;59.47;99573.50;7580995;33;38755;-73
2022/09/25 05:10:50;;;;;;;11.27;5.30;;;;;;;13.00;60.02;99574.37;7581729;32;37183;-73
2022/09/25 05:15:08;;;;;;;8.85;5.15;;;;;;;12.89;60.43;99560.81;7581162;33;40199;-73
2022/09/25 05:19:24;;;;;;;9.07;5.12;;;;;;;12.75;60.84;99562.66;7581049;33;39644;-73
2022/09/25 05:23:40;;;;;;;8.38;5.05;;;;;;;13.24;59.00;99545.03;7580902;33;37863;-73
2022/09/25 05:28:00;;;;;;;9.57;5.45;;;;;;;13.19;58.94;99547.84;7598333;32;37456;-73
2022/09/25 05:32:17;;;;;;;8.52;5.45;;;;;;;13.07;59.53;99559.25;7606758;32;40196;-73
2022/09/25 05:36:33;;;;;;;12.93;6.47;;;;;;;11.88;66.55;99575.22;7606500;32;39875;-72
2022/09/25 05:40:50;;;;;;;11.25;6.00;;;;;;;12.81;63.04;99577.06;7589139;32;38609;-73
2022/09/25 05:45:06;;;;;;;9.65;6.18;;;;;;;12.58;64.12;99572.13;7580707;33;38025;-73
2022/09/25 05:49:22;;;;;;;15.90;7.28;;;;;;;12.71;63.75;99581.56;7580632;33;40225;-73
2022/09/25 05:53:38;;;;;;;10.40;5.95;;;;;;;12.72;63.43;99591.38;7580514;33;40045;-73
2022/09/25 05:58:00;;;;;;;10.88;6.65;;;;;;;12.87;62.95;99595.06;7579700;33;38066;-73
2022/09/25 06:02:16;;;;;;;14.05;6.55;;;;;;;12.75;63.32;99593.53;7580573;33;37908;-72
2022/09/25 06:06:32;;;;;;;11.15;5.85;;;;;;;12.51;63.88;99590.00;7580551;33;39426;-72
2022/09/25 06:10:56;;;;;;;11.00;6.35;;;;;;;12.87;63.25;99589.59;7596304;32;39955;-71
2022/09/25 06:15:13;;;;;;;12.15;5.75;;;;;;;12.93;62.84;99593.88;7606343;32;38011;-72
2022/09/25 06:19:29;;;;;;;9.75;6.07;;;;;;;12.80;63.48;99600.03;7606525;32;37414;-72
2022/09/25 06:23:45;;;;;;;12.23;6.30;;;;;;;13.01;62.65;99600.66;7606332;32;39441;-73
2022/09/25 06:28:01;;;;;;;12.65;6.82;;;;;;;12.62;64.69;99591.50;7606728;32;40593;-72
2022/09/25 06:32:17;;;;;;;11.10;6.78;;;;;;;12.70;64.43;99584.59;7606147;32;37671;-72
2022/09/25 06:36:33;;;;;;;14.48;7.53;;;;;;;12.70;64.98;99590.88;7603031;32;36857;-73
2022/09/25 06:40:49;;;;;;;14.10;7.60;;;;;;;12.46;65.16;99600.97;7580217;33;39099;-72
2022/09/25 06:45:06;;;;;;;14.32;7.70;;;;;;;12.34;66.40;99604.91;7580921;32;40825;-72
2022/09/25 06:49:22;;;;;;;13.85;8.10;;;;;;;12.63;65.56;99612.28;7580785;32;38773;-73
2022/09/25 06:53:38;;;;;;;11.73;7.68;;;;;;;13.25;63.88;99622.50;7580105;33;37110;-72
2022/09/25 06:57:54;;;;;;;13.25;7.35;;;;;;;13.06;64.39;99609.59;7579909;33;39368;-73
2022/09/25 07:06:46;;;;;;;12.30;7.05;;;;;;;12.63;66.26;99600.53;7579864;33;38218;-73
2022/09/25 07:11:02;;;;;;;11.73;6.57;;;;;;;13.12;64.99;99596.66;7592466;32;37854;-70
2022/09/25 07:15:18;;;;;;;9.82;5.80;;;;;;;13.77;62.65;99578.81;7579683;33;40229;-75
2022/09/25 07:19:34;;;;;;;11.38;7.35;;;;;;;14.23;62.86;99576.09;7579600;33;39972;-73
2022/09/25 07:23:51;;;;;;;12.37;7.07;;;;;;;14.32;59.49;99598.16;7579365;33;37954;-75
2022/09/25 07:28:07;;;;;;;9.57;5.10;;;;;;;14.66;57.86;99599.78;7579615;33;37189;-75
2022/09/25 07:32:23;;;;;;;13.05;5.70;;;;;;;14.91;57.70;99598.44;7579473;33;40094;-75
2022/09/25 07:36:41;;;;;;;12.95;5.45;;;;;;;14.96;56.09;99595.59;7579852;32;40742;-76
2022/09/25 07:40:57;;;;;;;9.57;5.37;;;;;;;15.22;55.65;99575.84;7579240;33;37051;-76
2022/09/25 07:45:13;;;;;;;9.15;5.68;;;;;;;15.11;55.90;99572.50;7579134;33;37088;-75
2022/09/25 07:49:30;;;;;;;12.40;5.12;;;;;;;15.63;53.93;99568.63;7579092;33;39095;-76
2022/09/25 07:53:47;;;;;;;10.80;5.22;;;;;;;15.49;54.84;99563.97;7579091;33;40155;-75
2022/09/25 07:58:03;;;;;;;8.98;5.03;;;;;;;16.01;53.24;99565.53;7589703;32;38995;-76
2022/09/25 08:02:20;;;;;;;9.52;5.00;;;;;;;15.98;53.33;99560.66;7582324;32;37028;-75
2022/09/25 08:06:37;;;;;;;11.18;5.18;;;;;;;15.87;53.36;99576.59;7586213;32;39325;-76
2022/09/25 08:10:58;;;;;;;10.60;4.93;;;;;;;16.04;52.49;99570.38;7601019;32;39844;-75
2022/09/25 08:15:15;;;;;;;10.65;5.82;;;;;;;15.86;53.11;99569.47;7603100;32;38726;-74
2022/09/25 08:19:32;;;;;;;9.38;5.60;;;;;;;16.07;53.60;99551.31;7577724;33;37114;-74
2022/09/25 08:23:50;;;;;;;10.93;5.87;;;;;;;16.13;53.12;99552.81;7589767;32;40113;-75
2022/09/25 08:28:06;;;;;;;13.15;5.45;;;;;;;16.40;52.88;99556.53;7592633;32;38868;-74
2022/09/25 08:32:22;;;;;;;10.05;5.10;;;;;;;16.58;52.34;99556.63;7581139;33;37897;-75
2022/09/25 08:36:38;;;;;;;8.07;4.80;;;;;;;16.75;51.68;99556.69;7580999;33;37827;-75
2022/09/25 08:41:28;;;;;;;9.10;4.78;;;;;;;16.83;51.53;99557.81;7577767;33;38172;-73
2022/09/25 08:50:22;;;;;;;12.55;5.57;;;;;;;17.15;50.30;99570.41;7584260;32;38696;-73
2022/09/25 08:54:39;;;;;;;10.63;5.93;;;;;;;17.05;51.81;99562.44;7592375;32;36157;-73
2022/09/25 08:59:03;;;;;;;15.38;5.55;;;;;;;17.23;51.40;99558.59;7591982;32;39416;-73
2022/09/25 09:03:23;;;;;;;16.75;5.40;;;;;;;17.63;51.56;99550.19;7591379;32;39645;-74
2022/09/25 09:07:48;;;;;;;10.55;4.82;;;;;;;17.81;49.79;99553.72;7592096;32;37846;-74
2022/09/25 09:12:24;;;;;;;9.70;5.00;;;;;;;17.96;49.15;99559.94;7617138;32;37443;-74
2022/09/25 09:16:59;;;;;;;10.55;4.60;;;;;;;17.81;49.34;99553.72;7593041;32;40325;-70
2022/09/25 09:21:31;;;;;;;11.10;6.00;;;;;;;17.77;49.59;99563.00;7581524;32;39705;-74
2022/09/25 09:25:59;;;;;;;9.60;4.87;;;;;;;17.64;51.18;99571.12;7589146;32;38574;-75
2022/09/25 09:30:18;;;;;;;10.48;5.05;;;;;;;18.00;50.19;99558.94;7591226;32;36949;-76
2022/09/25 09:34:52;;;;;;;12.45;4.90;;;;;;;18.30;49.60;99553.53;7580136;33;37858;-73
2022/09/25 09:39:30;;;;;;;8.55;4.80;;;;;;;18.67;48.98;99545.56;7588706;32;40000;-76
2022/09/25 09:43:55;;;;;;;7.78;4.40;;;;;;;18.84;48.52;99543.91;7591605;32;38857;-76
2022/09/25 09:48:34;;;;;;;9.07;4.12;;;;;;;19.20;47.62;99546.13;7577541;33;37220;-75
2022/09/25 09:52:57;;;;;;;5.97;3.47;;;;;;;18.97;47.59;99548.38;7554927;33;40090;-74
2022/09/25 09:57:30;;;;;;;10.17;3.60;;;;;;;19.09;46.87;99554.00;7565850;33;39935;-74
2022/09/25 10:01:53;;;;;;;7.53;3.78;;;;;;;19.25;46.79;99534.06;7584529;32;38832;-74
2022/09/25 10:06:13;;;;;;;7.15;3.80;;;;;;;19.20;46.29;99539.81;7590841;32;37064;-75
2022/09/25 10:10:37;;;;;;;7.30;4.10;;;;;;;18.69;49.04;99535.00;7602085;32;40055;-73
2022/09/25 10:14:55;;;;;;;11.63;4.87;;;;;;;18.98;48.23;99546.44;7594953;32;40134;-74
2022/09/25 10:19:19;;;;;;;7.75;4.22;;;;;;;18.93;48.32;99541.91;7580334;32;38431;-73
2022/09/25 10:23:52;;;;;;;9.70;4.28;;;;;;;18.82;48.69;99540.66;7580437;33;36798;-73
2022/09/25 10:28:26;;;;;;;10.07;4.50;;;;;;;18.94;48.82;99543.53;7580607;33;39948;-74
2022/09/25 10:33:01;;;;;;;11.12;4.75;;;;;;;18.54;48.85;99547.44;7580194;33;39863;-74
2022/09/25 10:37:20;;;;;;;9.18;4.70;;;;;;;18.64;48.63;99551.75;7579951;33;39087;-73
2022/09/25 10:41:43;;;;;;;8.90;4.47;;;;;;;18.45;48.82;99543.87;7591126;32;38158;-74
2022/09/25 10:46:14;;;;;;;12.90;5.30;;;;;;;18.51;48.99;99526.00;7590442;32;39316;-73
2022/09/25 10:50:30;;;;;;;8.38;5.05;;;;;;;18.26;50.31;99519.44;7580073;33;40029;-73
2022/09/25 10:54:46;;;;;;;9.25;4.62;;;;;;;18.25;50.46;99526.13;7580038;33;37874;-74
2022/09/25 10:59:02;;;;;;;9.75;4.82;;;;;;;18.34;50.20;99523.31;7590740;32;37121;-72
2022/09/25 11:03:31;;;;;;;9.45;4.80;;;;;;;18.49;51.10;99522.78;7605819;32;39454;-76
2022/09/25 11:07:51;;;;;;;9.07;4.72;;;;;;;18.65;51.46;99520.25;7605832;32;40904;-77
2022/09/25 11:12:18;;;;;;;7.78;4.12;;;;;;;18.82;51.35;99513.87;7605559;32;37829;-75
2022/09/25 11:16:45;;;;;;;6.95;4.05;;;;;;;18.93;49.04;99514.28;7614756;32;37786;-70
2022/09/25 11:21:04;;;;;;;7.80;4.40;;;;;;;18.56;50.96;99523.06;7605333;32;39483;-76
2022/09/25 11:25:36;;;;;;;6.60;3.92;;;;;;;18.59;50.80;99516.06;7553869;33;41026;-76
2022/09/25 11:29:58;;;;;;;9.93;4.40;;;;;;;18.56;51.00;99509.25;7558414;32;38915;-74
2022/09/25 11:34:46;;;;;;;8.00;4.30;;;;;;;18.54;51.20;99507.97;7593099;32;37046;-74
2022/09/25 11:44:04;;;;;;;6.97;3.72;;;;;;;18.98;48.91;99499.47;7575332;32;40959;-73
2022/09/25 11:48:37;;;;;;;9.50;4.22;;;;;;;18.85;49.39;99495.81;7579120;33;38000;-74
2022/09/25 11:53:22;;;;;;;8.20;4.37;;;;;;;18.35;51.35;99498.16;7579148;33;37158;-74
2022/09/25 11:58:25;;;;;;;7.97;4.18;;;;;;;18.20;52.93;99499.50;7575713;32;39315;-74
2022/09/25 12:03:16;;;;;;;7.05;3.92;;;;;;;18.52;51.36;99496.44;7549998;33;40742;-74
2022/09/25 12:07:42;;;;;;;10.68;5.07;;;;;;;18.47;51.47;99491.13;7517642;33;38760;-74
2022/09/25 12:12:16;;;;;;;7.90;4.25;;;;;;;18.23;53.14;99492.53;7566935;33;38129;-75
2022/09/25 12:16:52;;;;;;;7.35;4.00;;;;;;;18.37;54.13;99484.84;7556267;33;39395;-75
2022/09/25 12:21:31;;;;;;;8.68;4.90;;;;;;;18.10;56.25;99493.53;7540724;33;40378;-74
2022/09/25 12:25:53;;;;;;;9.63;4.75;;;;;;;18.35;55.76;99489.87;7591361;32;37994;-74
2022/09/25 12:30:17;;;;;;;8.23;4.82;;;;;;;18.24;58.60;99499.66;7590499;32;37308;-74
2022/09/25 12:34:39;;;;;;;11.30;5.20;;;;;;;18.21;58.34;99500.31;7581778;33;39031;-71
2022/09/25 12:39:20;;;;;;;11.80;5.80;;;;;;;18.02;61.51;99498.75;7581498;33;40017;-75
2022/09/25 12:44:09;;;;;;;10.35;6.10;;;;;;;17.80;63.60;99491.47;7581567;33;37954;-75
2022/09/25 12:48:39;;;;;;;10.77;6.00;;;;;;;17.66;64.58;99488.09;7591082;32;37150;-74
2022/09/25 12:53:02;;;;;;;10.13;5.18;;;;;;;17.53;64.13;99491.84;7581014;33;39980;-75
2022/09/25 12:57:27;;;;;;;13.98;5.28;;;;;;;17.48;64.44;99484.53;7588647;32;39982;-74
2022/09/25 13:02:22;;;;;;;11.65;6.10;;;;;;;17.48;63.88;99490.06;7606975;32;38688;-73
2022/09/25 13:06:58;;;;;;;15.85;7.50;;;;;;;17.63;63.44;99491.50;7533719;32;37847;-74
2022/09/25 13:11:37;;;;;;;12.25;6.55;;;;;;;17.38;64.29;99485.66;7617557;32;39301;-75
2022/09/25 13:16:00;;;;;;;14.18;6.65;;;;;;;17.65;64.09;99480.97;7618189;32;40683;-74
2022/09/25 13:20:26;;;;;;;15.32;7.93;;;;;;;17.32;65.70;99481.47;7605390;32;37871;-74
2022/09/25 13:24:45;;;;;;;15.00;9.80;;;;;;;17.40;65.60;99477.09;7605969;32;37216;-74
2022/09/25 13:29:19;;;;;;;14.18;8.10;;;;;;;17.47;64.81;99466.38;7607726;32;39061;-73
2022/09/25 13:33:42;;;;;;;12.27;7.37;;;;;;;16.86;67.04;99464.41;7580540;32;39757;-74
2022/09/25 13:40:41;;;;;;;12.85;7.07;;;;;;;17.31;66.01;99457.00;7580694;33;37898;-74
2022/09/25 13:42:53;;;;;;;11.02;6.30;;;;;;;17.67;64.51;99461.34;7589419;32;36974;-74
2022/09/25 13:47:38;;;;;;;10.77;5.90;;;;;;;17.27;66.22;99463.16;7591698;32;40201;-73
2022/09/25 13:51:54;;;;;;;10.07;5.53;;;;;;;17.07;66.16;99459.13;7601180;32;40024;-74
2022/09/25 13:56:17;;;;;;;9.57;5.32;;;;;;;17.20;65.93;99451.81;7596385;32;37857;-75
2022/09/25 14:00:35;;;;;;;9.20;5.37;;;;;;;17.29;65.67;99453.75;7580753;33;36916;-75
2022/09/25 14:04:52;;;;;;;8.90;5.43;;;;;;;17.23;65.85;99448.41;7580619;33;39354;-75
2022/09/25 14:09:15;;;;;;;11.43;5.37;;;;;;;17.20;66.17;99464.78;7570694;33;39975;-76
2022/09/25 14:13:32;;;;;;;7.15;5.00;;;;;;;17.45;64.31;99458.47;7576674;33;37674;-74
2022/09/25 14:17:51;;;;;;;8.52;5.60;;;;;;;17.00;65.78;99452.47;7611638;32;37029;-75
2022/09/25 14:22:15;;;;;;;9.35;5.70;;;;;;;16.92;66.24;99456.84;7605690;32;39113;-76
2022/09/25 14:26:31;;;;;;;7.72;5.10;;;;;;;16.83;66.42;99450.47;7616620;32;39756;-76
2022/09/25 14:31:10;;;;;;;8.57;5.25;;;;;;;16.82;66.16;99455.16;7606208;32;37958;-76
2022/09/25 14:35:58;;;;;;;10.43;4.82;;;;;;;16.47;67.70;99454.25;7610413;32;37079;-78
2022/09/25 14:40:14;;;;;;;8.68;5.18;;;;;;;16.58;67.39;99452.84;7580112;33;40127;-78
2022/09/25 14:44:56;;;;;;;9.57;4.95;;;;;;;16.37;67.99;99452.63;7580147;33;40823;-79
2022/09/25 14:49:45;;;;;;;6.65;4.50;;;;;;;16.28;67.94;99446.28;7579893;32;36327;-79
2022/09/25 14:54:04;;;;;;;7.35;4.12;;;;;;;16.63;66.50;99449.94;7570449;32;36727;-78
2022/09/25 14:58:23;;;;;;;5.65;3.35;;;;;;;16.39;67.29;99455.88;7598330;32;39495;-79
2022/09/25 15:02:42;;;;;;;6.53;3.42;;;;;;;16.41;67.04;99447.31;7616742;32;40783;-78
2022/09/25 15:07:11;;;;;;;5.03;3.08;;;;;;;16.45;66.67;99454.59;7605526;32;36897;-79
2022/09/25 15:11:41;;;;;;;5.62;3.20;;;;;;;16.30;67.49;99444.03;7605576;32;38300;-78
2022/09/25 15:20:33;;;;;;;4.68;2.92;;;;;;;16.43;66.77;99429.34;7579486;33;40914;-78
2022/09/25 15:24:53;;;;;;;5.97;2.83;;;;;;;16.29;67.40;99434.97;7579320;33;38638;-78
2022/09/25 15:29:37;;;;;;;5.40;2.47;;;;;;;16.19;67.63;99439.94;7579349;33;37167;-79
2022/09/25 15:34:10;;;;;;;3.42;2.50;;;;;;;16.05;67.99;99435.34;7578222;32;39322;-78
2022/09/25 15:38:34;;;;;;;4.85;2.55;;;;;;;16.08;68.14;99431.16;7597537;32;39948;-79
2022/09/25 15:42:51;;;;;;;3.78;2.42;;;;;;;16.44;66.50;99430.16;7604938;32;37041;-78
2022/09/25 15:47:27;;;;;;;3.92;2.40;;;;;;;16.02;67.92;99430.47;7604864;32;36995;-79
2022/09/25 15:51:57;;;;;;;5.62;2.70;;;;;;;16.04;68.12;99433.75;7613774;32;39177;-78
2022/09/25 15:56:42;;;;;;;4.07;2.47;;;;;;;16.10;67.63;99429.72;7581697;32;40754;-78
2022/09/25 16:05:42;;;;;;;5.75;2.50;;;;;;;15.96;67.99;99421.56;7597832;32;37401;-78
2022/09/25 16:10:15;;;;;;;2.87;2.17;;;;;;;16.14;67.52;99421.63;7588197;32;40101;-78
2022/09/25 16:14:32;;;;;;;3.12;2.25;;;;;;;15.93;68.20;99410.41;7612899;32;39689;-79
2022/09/25 16:18:48;;;;;;;4.07;2.60;;;;;;;15.92;68.51;99406.84;7603973;32;38740;-79
2022/09/25 16:23:06;;;;;;;4.85;2.72;;;;;;;15.82;69.08;99420.06;7599933;32;36536;-77
2022/09/25 16:27:31;;;;;;;5.97;2.90;;;;;;;16.06;67.88;99406.75;7609227;32;39271;-78
2022/09/25 16:31:52;;;;;;;4.87;2.40;;;;;;;16.30;66.91;99392.59;7582930;32;40750;-78
2022/09/25 16:36:14;;;;;;;6.00;2.47;;;;;;;16.19;67.25;99387.69;7608070;32;37963;-78
2022/09/25 16:40:37;;;;;;;3.47;2.42;;;;;;;15.90;68.36;99391.78;7583051;32;37486;-77
2022/09/25 16:45:11;;;;;;;3.85;2.40;;;;;;;16.06;67.77;99384.75;7613536;32;39328;-77
2022/09/25 16:49:27;;;;;;;3.80;2.37;;;;;;;16.14;67.39;99383.97;7607305;32;40620;-76
2022/09/25 16:53:45;;;;;;;3.85;2.37;;;;;;;16.10;67.62;99374.72;7587205;32;38649;-76
2022/09/25 16:58:02;;;;;;;3.87;2.33;;;;;;;16.02;68.26;99374.69;7581145;33;37790;-75
2022/09/25 17:02:47;;;;;;;3.90;2.17;;;;;;;16.11;67.82;99364.56;7591511;32;39455;-77
2022/09/25 17:07:03;;;;;;;3.53;2.15;;;;;;;16.37;66.87;99370.09;7587956;32;39917;-76
2022/09/25 17:11:22;;;;;;;4.10;2.30;;;;;;;16.05;67.88;99374.88;7589931;32;37963;-79
2022/09/25 17:15:42;;;;;;;3.33;2.20;;;;;;;16.14;67.70;99366.63;7579656;33;36926;-77
2022/09/25 17:19:58;;;;;;;2.90;2.00;;;;;;;16.31;67.26;99371.38;7580411;33;39411;-77
2022/09/25 17:24:15;;;;;;;3.08;2.17;;;;;;;16.01;68.26;99373.88;7591318;32;39966;-77
2022/09/25 17:28:32;;;;;;;2.60;2.00;;;;;;;15.92;68.47;99376.59;7580318;32;38619;-76
2022/09/25 17:32:50;;;;;;;12.30;2.25;;;;;;;15.88;68.57;99375.59;7579896;32;37197;-76
2022/09/25 17:37:06;;;;;;;2.70;1.83;;;;;;;16.09;68.11;99375.03;7579823;32;40066;-76
2022/09/25 17:41:29;;;;;;;2.30;1.70;;;;;;;15.93;68.25;99380.16;7605992;32;40712;-76
2022/09/25 17:45:48;;;;;;;3.75;1.77;;;;;;;15.96;68.44;99380.34;7582064;32;37639;-77
2022/09/25 17:50:05;;;;;;;3.72;1.60;;;;;;;15.67;69.46;99382.75;7581635;32;37853;-76
2022/09/25 17:54:22;;;;;;;3.03;1.92;;;;;;;15.81;69.30;99380.75;7588295;32;39464;-76
2022/09/25 17:58:39;;;;;;;4.07;1.80;;;;;;;15.78;69.55;99375.91;7579745;33;40839;-75
2022/09/25 18:02:58;;;;;;;3.12;1.80;;;;;;;16.07;68.25;99372.59;7582033;32;37900;-76
2022/09/25 18:07:14;;;;;;;3.58;1.90;;;;;;;15.94;68.80;99379.84;7594637;32;347071;-77
2022/09/25 18:11:30;;;;;;;3.80;2.53;;;;;;;15.86;69.05;99383.37;7596742;32;39608;-77
2022/09/25 18:15:55;;;;;;;7.12;2.30;;;;;;;15.85;69.21;99383.69;7579654;33;38963;-77
2022/09/25 18:24:55;;;;;;;6.40;3.08;;;;;;;16.19;67.80;99379.44;7586657;32;34901;-77
2022/09/25 18:29:16;;;;;;;4.40;3.00;;;;;;;16.14;68.17;99378.47;7614187;32;39113;-77
2022/09/25 18:33:34;;;;;;;4.22;2.75;;;;;;;15.88;69.40;99380.31;7556369;32;40508;-77
2022/09/25 18:37:51;;;;;;;5.45;3.10;;;;;;;15.87;69.28;99379.50;7552207;33;37599;-78
2022/09/25 18:42:07;;;;;;;4.75;3.00;;;;;;;15.88;69.45;99377.56;7553015;33;37062;-78
2022/09/25 18:46:23;;;;;;;4.35;2.95;;;;;;;15.80;69.64;99373.66;7573177;32;39498;-77
2022/09/25 18:50:40;;;;;;;5.60;3.37;;;;;;;15.99;68.96;99369.81;7579211;33;39728;-77
2022/09/25 18:54:59;;;;;;;6.20;3.92;;;;;;;15.59;70.41;99373.34;7576779;33;38027;-78
2022/09/25 18:59:15;;;;;;;7.40;4.40;;;;;;;15.80;69.71;99367.31;7579426;33;36915;-77
2022/09/25 19:03:31;;;;;;;8.80;4.95;;;;;;;15.88;69.73;99369.31;7579326;33;39366;-77
2022/09/25 19:07:53;;;;;;;9.23;5.82;;;;;;;15.63;70.62;99365.31;7579047;32;39849;-77
2022/09/25 19:12:14;;;;;;;11.35;5.57;;;;;;;15.49;71.21;99351.66;7579373;33;38461;-77
2022/09/25 19:16:32;;;;;;;10.48;5.70;;;;;;;15.96;69.45;99361.09;7579227;33;37170;-77
2022/09/25 19:20:53;;;;;;;9.53;5.83;;;;;;;15.74;70.21;99348.19;7579279;33;39327;-77
2022/09/25 19:25:10;;;;;;;9.02;5.87;;;;;;;15.72;70.63;99350.44;7590090;32;40768;-77
2022/09/25 19:29:26;;;;;;;11.10;6.32;;;;;;;15.72;70.15;99353.19;7584113;32;37858;-77
2022/09/25 19:33:43;;;;;;;12.73;6.40;;;;;;;16.10;68.79;99341.72;7578837;33;37371;-77
2022/09/25 19:37:59;;;;;;;9.15;5.82;;;;;;;16.08;68.81;99341.25;7553018;33;39345;-79
2022/09/25 19:42:15;;;;;;;10.35;6.32;;;;;;;15.84;69.61;99340.84;7575415;32;39867;-78
2022/09/25 19:46:31;;;;;;;10.05;6.20;;;;;;;15.75;69.75;99347.13;7589409;32;38453;-78
2022/09/25 19:50:49;;;;;;;9.63;5.25;;;;;;;15.64;70.38;99353.97;7578599;32;36879;-79
2022/09/25 19:55:05;;;;;;;9.57;5.07;;;;;;;15.66;70.06;99340.75;7583109;32;39294;-78
2022/09/25 19:59:21;;;;;;;10.15;4.90;;;;;;;15.77;69.96;99350.34;7604101;32;41245;-77
2022/09/25 20:03:38;;;;;;;7.68;4.78;;;;;;;15.94;69.05;99337.81;7604146;32;37540;-78
2022/09/25 20:07:54;;;;;;;7.70;4.75;;;;;;;16.11;68.19;99340.59;7597135;32;37856;-78
2022/09/25 20:12:10;;;;;;;8.80;4.60;;;;;;;15.64;70.06;99337.47;7603606;32;39411;-79
2022/09/25 20:16:28;;;;;;;7.12;4.40;;;;;;;15.52;70.35;99326.28;7614830;32;40140;-77
2022/09/25 20:20:44;;;;;;;7.22;4.18;;;;;;;15.57;70.06;99331.63;7584539;32;37926;-78
2022/09/25 20:25:02;;;;;;;6.57;4.12;;;;;;;15.51;70.63;99338.41;7581258;33;37059;-79
2022/09/25 20:29:18;;;;;;;7.10;3.87;;;;;;;15.27;71.01;99339.56;7582527;32;38388;-78
2022/09/25 20:33:35;;;;;;;8.50;4.72;;;;;;;15.67;69.56;99338.81;7585167;32;40858;-79
2022/09/25 20:37:51;;;;;;;8.90;4.68;;;;;;;15.68;69.34;99335.75;7580918;33;37891;-78
2022/09/25 20:42:08;;;;;;;8.60;4.62;;;;;;;15.97;68.56;99323.44;7586727;32;36856;-78
2022/09/25 20:46:25;;;;;;;6.60;4.20;;;;;;;15.88;68.64;99312.38;7606861;32;39442;-79
2022/09/25 20:50:49;;;;;;;6.78;4.15;;;;;;;15.95;68.29;99307.25;7606819;32;39721;-78
2022/09/25 20:55:05;;;;;;;;;;;;;;;15.90;68.21;99315.66;7606087;32;38630;-79
2022/09/25 20:59:22;;;;;;;7.03;3.60;;;;;;;15.71;69.14;99310.38;7605767;32;35740;-78
2022/09/25 21:03:41;;;;;;;5.07;3.37;;;;;;;15.86;68.56;99300.09;7605930;32;39613;-79
2022/09/25 21:07:57;;;;;;;7.37;3.80;;;;;;;16.00;67.92;99289.78;7585255;32;39782;-80
2022/09/25 21:12:13;;;;;;;6.65;3.95;;;;;;;16.05;67.49;99283.34;7583038;32;38687;-80